^^
Datos históricos de la estación: Murcia-Puente Tocinos
Diario Informe para Marzo 27, 2019 Unidades:  Ambas    Ingés   Métrico
Diario Semanal Mensual Anual
  Máxima: Mínima: Promedio:
Temperatura: 85.6 °F /  29.8 °C 61.9 °F /  16.6 °C 72.3 °F /  22.4 °C
Punto de rocio: 62.1 °F /  16.7 °C 49.6 °F /  9.8 °C 55.9 °F /  13.3 °C
Humedad: 87% 28.9% 60%
Velocidad viento: 12.3mph /  19.8km/h - 5.1mph /  8.2km/h
Racha viento: 25mph /  40.2km/h - -
Viento- - SE
Presión: 29.9 in /  1013.8 hPa 29.8 in /  1007.4 hPa -
Precipitación: 0 in /  0.0 mm    
 
 
Tabla de datos para Marzo 27, 2019
Hora Temperatura Punto de rocio Presión Viento Velocidad viento Racha viento Humedad Intensidad lluvia(por hora) Nubes
00:04 67.6 °F /  19.8 °C 53.4 °F /  11.9 °C 29.9in /  1013.8hPa NE 5.2mph /  8.4km/h 10.4mph /  16.7km/h 60.6% 0in /  0.0mm
00:09 66.9 °F /  19.4 °C 55 °F /  12.8 °C 29.9in /  1013.7hPa NE 5.3mph /  8.5km/h 8.1mph /  13km/h 65.5% 0in /  0.0mm
00:14 66.6 °F /  19.2 °C 56.1 °F /  13.4 °C 29.9in /  1013.7hPa NNE 5.4mph /  8.7km/h 7mph /  11.3km/h 69% 0in /  0.0mm
00:19 66.2 °F /  19 °C 57.6 °F /  14.2 °C 29.9in /  1013.7hPa NNE 5mph /  8km/h 8.5mph /  13.7km/h 73.5% 0in /  0.0mm
00:24 65.8 °F /  18.8 °C 58.3 °F /  14.6 °C 29.9in /  1013.7hPa NNE 4.3mph /  6.9km/h 9mph /  14.5km/h 76.5% 0in /  0.0mm
00:29 65.7 °F /  18.7 °C 59 °F /  15 °C 29.9in /  1013.7hPa NNE 4.7mph /  7.5km/h 10.4mph /  16.7km/h 78.7% 0in /  0.0mm
00:34 65.7 °F /  18.7 °C 59.2 °F /  15.1 °C 29.9in /  1013.7hPa NNE 5.2mph /  8.4km/h 10mph /  16.1km/h 80% 0in /  0.0mm
00:39 65.5 °F /  18.6 °C 59.5 °F /  15.3 °C 29.9in /  1013.7hPa NNE 5.3mph /  8.5km/h 9.2mph /  14.8km/h 81% 0in /  0.0mm
00:44 65.3 °F /  18.5 °C 59.7 °F /  15.4 °C 29.9in /  1013.7hPa NNE 5.4mph /  8.7km/h 9.2mph /  14.8km/h 82% 0in /  0.0mm
00:49 65.1 °F /  18.4 °C 59.7 °F /  15.4 °C 29.9in /  1013.7hPa NNE 5.6mph /  9km/h 9.7mph /  15.6km/h 82.4% 0in /  0.0mm
00:54 65.1 °F /  18.4 °C 59.7 °F /  15.4 °C 29.9in /  1013.6hPa NNE 5.9mph /  9.5km/h 10mph /  16.1km/h 83% 0in /  0.0mm
00:59 64.9 °F /  18.3 °C 59.9 °F /  15.5 °C 29.9in /  1013.6hPa NNE 5.2mph /  8.4km/h 9.7mph /  15.6km/h 83.3% 0in /  0.0mm
01:04 64.9 °F /  18.3 °C 60.1 °F /  15.6 °C 29.9in /  1013.6hPa NNE 4.3mph /  6.9km/h 10mph /  16.1km/h 84% 0in /  0.0mm
01:09 64.9 °F /  18.3 °C 59.9 °F /  15.5 °C 29.9in /  1013.4hPa NE 4.5mph /  7.2km/h 9mph /  14.5km/h 84% 0in /  0.0mm
01:14 64.8 °F /  18.2 °C 59.9 °F /  15.5 °C 29.9in /  1013.4hPa NE 4.7mph /  7.6km/h 8.1mph /  13km/h 84.5% 0in /  0.0mm
01:19 64.8 °F /  18.2 °C 60.1 °F /  15.6 °C 29.9in /  1013.4hPa NE 4.3mph /  6.9km/h 8mph /  12.9km/h 85% 0in /  0.0mm
01:24 64.6 °F /  18.1 °C 60.1 °F /  15.6 °C 29.9in /  1013.3hPa NNE 3.6mph /  5.8km/h 7.4mph /  11.9km/h 85% 0in /  0.0mm
01:29 64.4 °F /  18 °C 59.9 °F /  15.5 °C 29.9in /  1013.3hPa NNE 3.9mph /  6.2km/h 7.4mph /  11.9km/h 85.1% 0in /  0.0mm
01:34 64.2 °F /  17.9 °C 59.9 °F /  15.5 °C 29.9in /  1013.3hPa NNE 4.3mph /  6.9km/h 7mph /  11.3km/h 86% 0in /  0.0mm
01:39 64.2 °F /  17.9 °C 59.9 °F /  15.5 °C 29.9in /  1013.3hPa NE 4.2mph /  6.8km/h 7mph /  11.3km/h 86% 0in /  0.0mm
01:44 64 °F /  17.8 °C 59.7 °F /  15.4 °C 29.9in /  1013.3hPa NE 4mph /  6.5km/h 7.4mph /  11.9km/h 86% 0in /  0.0mm
01:49 64 °F /  17.8 °C 60.1 °F /  15.6 °C 29.9in /  1013.3hPa NNE 3.9mph /  6.2km/h 7mph /  11.3km/h 86.7% 0in /  0.0mm
01:54 63.9 °F /  17.7 °C 59.9 °F /  15.5 °C 29.9in /  1013.3hPa NNE 3.6mph /  5.8km/h 6.2mph /  10km/h 87% 0in /  0.0mm
01:59 63.9 °F /  17.7 °C 59.9 °F /  15.5 °C 29.9in /  1013.3hPa NNE 3.7mph /  6km/h 8.1mph /  13km/h 87% 0in /  0.0mm
02:04 63.9 °F /  17.7 °C 59.7 °F /  15.4 °C 29.9in /  1013.3hPa NNE 4mph /  6.5km/h 8mph /  12.9km/h 87% 0in /  0.0mm
02:09 63.7 °F /  17.6 °C 59.7 °F /  15.4 °C 29.9in /  1013.1hPa NNE 4mph /  6.5km/h 6.2mph /  10km/h 87% 0in /  0.0mm
02:14 63.5 °F /  17.5 °C 59.7 °F /  15.4 °C 29.9in /  1013.1hPa NE 4mph /  6.5km/h 6.9mph /  11.1km/h 87% 0in /  0.0mm
02:19 63.5 °F /  17.5 °C 59.5 °F /  15.3 °C 29.9in /  1013.3hPa NE 4mph /  6.5km/h 7mph /  11.3km/h 87% 0in /  0.0mm
02:24 63.3 °F /  17.4 °C 59.4 °F /  15.2 °C 29.9in /  1013.3hPa NE 4mph /  6.5km/h 7.4mph /  11.9km/h 86.6% 0in /  0.0mm
02:29 63.3 °F /  17.4 °C 59 °F /  15 °C 29.9in /  1013.3hPa ENE 4.1mph /  6.6km/h 7mph /  11.3km/h 85.8% 0in /  0.0mm
02:34 63.1 °F /  17.3 °C 57.9 °F /  14.4 °C 29.9in /  1013.3hPa Este 4.3mph /  6.9km/h 6mph /  9.7km/h 83.1% 0in /  0.0mm
02:39 63 °F /  17.2 °C 56.7 °F /  13.7 °C 29.9in /  1013.1hPa Este 3.6mph /  5.8km/h 5mph /  8km/h 79.9% 0in /  0.0mm
02:44 63 °F /  17.2 °C 56.3 °F /  13.5 °C 29.9in /  1013.1hPa NE 2.4mph /  3.9km/h 5.2mph /  8.4km/h 79% 0in /  0.0mm
02:49 63 °F /  17.2 °C 56.3 °F /  13.5 °C 29.9in /  1013.1hPa Este 2.6mph /  4.2km/h 5.2mph /  8.4km/h 79% 0in /  0.0mm
02:54 63 °F /  17.2 °C 56.5 °F /  13.6 °C 29.9in /  1013.1hPa Este 2.9mph /  4.7km/h 5mph /  8km/h 79.4% 0in /  0.0mm
02:59 62.8 °F /  17.1 °C 56.5 °F /  13.6 °C 29.9in /  1013.1hPa Este 2.7mph /  4.3km/h 5.2mph /  8.4km/h 80% 0in /  0.0mm
03:04 62.8 °F /  17.1 °C 56.7 °F /  13.7 °C 29.9in /  1013.1hPa Este 2.4mph /  3.9km/h 5mph /  8km/h 80.6% 0in /  0.0mm
03:09 62.6 °F /  17 °C 56.8 °F /  13.8 °C 29.9in /  1012.9hPa Este 2.4mph /  3.9km/h 5mph /  8km/h 81.2% 0in /  0.0mm
03:14 62.6 °F /  17 °C 57 °F /  13.9 °C 29.9in /  1012.9hPa Este 2.4mph /  3.9km/h 5mph /  8km/h 82% 0in /  0.0mm
03:19 62.6 °F /  17 °C 56.7 °F /  13.7 °C 29.9in /  1012.9hPa Este 2.2mph /  3.6km/h 5mph /  8km/h 81.1% 0in /  0.0mm
03:24 62.6 °F /  17 °C 56.5 °F /  13.6 °C 29.9in /  1012.9hPa Este 2mph /  3.2km/h 5mph /  8km/h 80.5% 0in /  0.0mm
03:29 62.6 °F /  17 °C 56.1 °F /  13.4 °C 29.9in /  1012.9hPa ESE 2.4mph /  3.8km/h 5.2mph /  8.4km/h 79.4% 0in /  0.0mm
03:34 62.6 °F /  17 °C 55.8 °F /  13.2 °C 29.9in /  1012.9hPa ESE 2.9mph /  4.7km/h 5mph /  8km/h 78.6% 0in /  0.0mm
03:39 62.8 °F /  17.1 °C 55.8 °F /  13.2 °C 29.9in /  1012.8hPa ESE 2.9mph /  4.7km/h 5.2mph /  8.4km/h 78% 0in /  0.0mm
03:44 62.8 °F /  17.1 °C 55.6 °F /  13.1 °C 29.9in /  1012.8hPa SE 2.9mph /  4.7km/h 5mph /  8km/h 77% 0in /  0.0mm
03:49 62.8 °F /  17.1 °C 55.6 °F /  13.1 °C 29.9in /  1012.8hPa SSE 2.9mph /  4.7km/h 5.2mph /  8.4km/h 77% 0in /  0.0mm
03:54 63 °F /  17.2 °C 55.6 °F /  13.1 °C 29.9in /  1012.7hPa Sur 2.9mph /  4.7km/h 5.8mph /  9.3km/h 77% 0in /  0.0mm
03:59 63 °F /  17.2 °C 55.6 °F /  13.1 °C 29.9in /  1012.7hPa Sur 2.9mph /  4.7km/h 6mph /  9.7km/h 77% 0in /  0.0mm
04:04 63 °F /  17.2 °C 55.9 °F /  13.3 °C 29.9in /  1012.7hPa Sur 2.9mph /  4.6km/h 5mph /  8km/h 77.9% 0in /  0.0mm
04:09 63 °F /  17.2 °C 55.9 °F /  13.3 °C 29.9in /  1012.6hPa Sur 2.5mph /  4.1km/h 5mph /  8km/h 78% 0in /  0.0mm
04:14 62.8 °F /  17.1 °C 55.8 °F /  13.2 °C 29.9in /  1012.6hPa SSO 2mph /  3.2km/h 5mph /  8km/h 78% 0in /  0.0mm
04:19 62.8 °F /  17.1 °C 55.8 °F /  13.2 °C 29.9in /  1012.6hPa SSO 1.9mph /  3.1km/h 3mph /  4.8km/h 78% 0in /  0.0mm
04:24 62.8 °F /  17.1 °C 56.1 °F /  13.4 °C 29.9in /  1012.5hPa SSO 1.8mph /  2.9km/h 2mph /  3.2km/h 79% 0in /  0.0mm
04:29 62.8 °F /  17.1 °C 56.1 °F /  13.4 °C 29.9in /  1012.5hPa SSO 1.1mph /  1.8km/h   79% 0in /  0.0mm
04:34 62.8 °F /  17.1 °C 56.5 °F /  13.6 °C 29.9in /  1012.5hPa Calm     79.8% 0in /  0.0mm
04:39 62.8 °F /  17.1 °C 56.5 °F /  13.6 °C 29.9in /  1012.4hPa Calm     80% 0in /  0.0mm
04:44 62.8 °F /  17.1 °C 56.5 °F /  13.6 °C 29.9in /  1012.4hPa Calm     79.9% 0in /  0.0mm
04:49 62.8 °F /  17.1 °C 56.3 °F /  13.5 °C 29.9in /  1012.4hPa Calm     79.5% 0in /  0.0mm
04:54 62.8 °F /  17.1 °C 56.5 °F /  13.6 °C 29.9in /  1012.2hPa Calm   3.6mph /  5.8km/h 80% 0in /  0.0mm
04:59 63 °F /  17.2 °C 57 °F /  13.9 °C 29.9in /  1012.2hPa SSO 0.6mph /  0.9km/h 4.6mph /  7.4km/h 81% 0in /  0.0mm
05:04 63 °F /  17.2 °C 57.2 °F /  14 °C 29.9in /  1012.2hPa SSO 1.4mph /  2.2km/h 5.8mph /  9.3km/h 81.3% 0in /  0.0mm
05:09 63 °F /  17.2 °C 57.4 °F /  14.1 °C 29.9in /  1012.2hPa SSO 2.2mph /  3.5km/h 6mph /  9.7km/h 82% 0in /  0.0mm
05:14 63 °F /  17.2 °C 57.7 °F /  14.3 °C 29.9in /  1012.2hPa SO 3.6mph /  5.8km/h 6.2mph /  10km/h 82.8% 0in /  0.0mm
05:19 63 °F /  17.2 °C 57.6 °F /  14.2 °C 29.9in /  1012.2hPa SO 3.6mph /  5.8km/h 6mph /  9.7km/h 82.6% 0in /  0.0mm
05:24 63 °F /  17.2 °C 57.4 °F /  14.1 °C 29.9in /  1012.1hPa SO 3.6mph /  5.8km/h 8.1mph /  13km/h 82% 0in /  0.0mm
05:29 62.8 °F /  17.1 °C 57.2 °F /  14 °C 29.9in /  1012.1hPa SO 3.7mph /  6km/h 8mph /  12.9km/h 82% 0in /  0.0mm
05:34 62.8 °F /  17.1 °C 57.2 °F /  14 °C 29.9in /  1012.1hPa SO 4mph /  6.5km/h 9.2mph /  14.8km/h 82% 0in /  0.0mm
05:39 62.6 °F /  17 °C 57 °F /  13.9 °C 29.9in /  1012.1hPa SSO 4.3mph /  6.9km/h 9mph /  14.5km/h 82% 0in /  0.0mm
05:44 62.4 °F /  16.9 °C 57 °F /  13.9 °C 29.9in /  1012.1hPa SSO 4.7mph /  7.6km/h 9mph /  14.5km/h 82.2% 0in /  0.0mm
05:49 62.4 °F /  16.9 °C 57.2 °F /  14 °C 29.9in /  1012.1hPa SSO 4.9mph /  7.9km/h 8mph /  12.9km/h 83% 0in /  0.0mm
05:54 62.4 °F /  16.9 °C 57.2 °F /  14 °C 29.9in /  1011.9hPa SSO 5.2mph /  8.4km/h 8.5mph /  13.7km/h 83% 0in /  0.0mm
05:59 62.2 °F /  16.8 °C 57 °F /  13.9 °C 29.9in /  1011.9hPa SO 5mph /  8km/h 9mph /  14.5km/h 83% 0in /  0.0mm
06:04 62.2 °F /  16.8 °C 57 °F /  13.9 °C 29.9in /  1011.9hPa SSO 4.7mph /  7.6km/h 8.1mph /  13km/h 83% 0in /  0.0mm
06:09 62.2 °F /  16.8 °C 57 °F /  13.9 °C 29.9in /  1011.9hPa SSO 4.5mph /  7.2km/h 8mph /  12.9km/h 83% 0in /  0.0mm
06:14 62.2 °F /  16.8 °C 57 °F /  13.9 °C 29.9in /  1011.9hPa SO 4mph /  6.5km/h 6.9mph /  11.1km/h 83% 0in /  0.0mm
06:19 62.2 °F /  16.8 °C 57 °F /  13.9 °C 29.9in /  1012.0hPa SO 3.9mph /  6.2km/h 7mph /  11.3km/h 83.2% 0in /  0.0mm
06:24 62.2 °F /  16.8 °C 57.4 °F /  14.1 °C 29.9in /  1012.0hPa SO 3.6mph /  5.8km/h 6.4mph /  10.3km/h 83.7% 0in /  0.0mm
06:29 62.4 °F /  16.9 °C 57.4 °F /  14.1 °C 29.9in /  1012.0hPa SSO 3.6mph /  5.8km/h 7mph /  11.3km/h 83.5% 0in /  0.0mm
06:34 62.2 °F /  16.8 °C 57.2 °F /  14 °C 29.9in /  1012.0hPa SSO 3.6mph /  5.8km/h 7mph /  11.3km/h 83% 0in /  0.0mm
06:39 62.2 °F /  16.8 °C 57 °F /  13.9 °C 29.9in /  1012.0hPa SSO 3.7mph /  6km/h 7mph /  11.3km/h 83% 0in /  0.0mm
06:44 62.2 °F /  16.8 °C 57 °F /  13.9 °C 29.9in /  1012.0hPa SSO 4mph /  6.5km/h 6mph /  9.7km/h 83% 0in /  0.0mm
06:49 62.2 °F /  16.8 °C 57 °F /  13.9 °C 29.9in /  1012.1hPa OSO 3.7mph /  5.9km/h 5mph /  8km/h 83% 0in /  0.0mm
06:54 62.2 °F /  16.8 °C 57 °F /  13.9 °C 29.9in /  1012.1hPa OSO 3.1mph /  5km/h 5.8mph /  9.3km/h 83% 0in /  0.0mm
06:59 62.1 °F /  16.7 °C 56.5 °F /  13.6 °C 29.9in /  1012.1hPa OSO 3mph /  4.9km/h 6mph /  9.7km/h 82% 0in /  0.0mm
07:04 62.1 °F /  16.7 °C 56.5 °F /  13.6 °C 29.9in /  1012.2hPa OSO 2.9mph /  4.7km/h 6mph /  9.7km/h 82% 0in /  0.0mm
07:09 61.9 °F /  16.6 °C 56.3 °F /  13.5 °C 29.9in /  1012.2hPa SO 2.9mph /  4.7km/h 5mph /  8km/h 82% 0in /  0.0mm
07:14 61.9 °F /  16.6 °C 56.3 °F /  13.5 °C 29.9in /  1012.2hPa SSO 2.9mph /  4.7km/h 5.2mph /  8.4km/h 82% 0in /  0.0mm
07:19 61.9 °F /  16.6 °C 56.1 °F /  13.4 °C 29.9in /  1012.3hPa SSO 3mph /  4.8km/h 5.2mph /  8.4km/h 81.3% 0in /  0.0mm
07:24 61.9 °F /  16.6 °C 55.9 °F /  13.3 °C 29.9in /  1012.3hPa SSO 3.1mph /  5km/h 5.4mph /  8.7km/h 81% 0in /  0.0mm
07:29 62.1 °F /  16.7 °C 56.1 °F /  13.4 °C 29.9in /  1012.3hPa SSO 3mph /  4.9km/h 6mph /  9.7km/h 81% 0in /  0.0mm
07:34 62.1 °F /  16.7 °C 56.1 °F /  13.4 °C 29.9in /  1012.3hPa SSO 2.9mph /  4.7km/h 6.4mph /  10.3km/h 81% 0in /  0.0mm
07:39 62.2 °F /  16.8 °C 55.9 °F /  13.3 °C 29.9in /  1012.3hPa SSO 3.4mph /  5.5km/h 7mph /  11.3km/h 80.2% 0in /  0.0mm
07:44 62.2 °F /  16.8 °C 56.1 °F /  13.4 °C 29.9in /  1012.3hPa SO 4.3mph /  6.9km/h 7mph /  11.3km/h 80% 0in /  0.0mm
07:49 62.4 °F /  16.9 °C 56.1 °F /  13.4 °C 29.9in /  1012.3hPa SO 3.9mph /  6.2km/h 6mph /  9.7km/h 79.9% 0in /  0.0mm
07:54 62.8 °F /  17.1 °C 56.1 °F /  13.4 °C 29.9in /  1012.3hPa OSO 3.1mph /  5km/h 6.2mph /  10km/h 79% 0in /  0.0mm
07:59 63 °F /  17.2 °C 56.1 °F /  13.4 °C 29.9in /  1012.3hPa OSO 3.1mph /  5km/h 6.9mph /  11.1km/h 78.4% 0in /  0.0mm
08:04 63.1 °F /  17.3 °C 56.3 °F /  13.5 °C 29.9in /  1012.4hPa OSO 3.1mph /  5km/h 7mph /  11.3km/h 78.5% 0in /  0.0mm
08:09 63.1 °F /  17.3 °C 56.3 °F /  13.5 °C 29.9in /  1012.4hPa Oeste 3.3mph /  5.3km/h 7mph /  11.3km/h 78.4% 0in /  0.0mm
08:14 63.1 °F /  17.3 °C 56.1 °F /  13.4 °C 29.9in /  1012.4hPa ONO 3.6mph /  5.8km/h 5mph /  8km/h 78% 0in /  0.0mm
08:19 63.1 °F /  17.3 °C 56.3 °F /  13.5 °C 29.9in /  1012.4hPa Oeste 3.4mph /  5.5km/h 5.9mph /  9.5km/h 78% 0in /  0.0mm
08:24 63.3 °F /  17.4 °C 56.3 °F /  13.5 °C 29.9in /  1012.3hPa ONO 3.1mph /  5km/h 6mph /  9.7km/h 78% 0in /  0.0mm
08:29 63.5 °F /  17.5 °C 56.5 °F /  13.6 °C 29.9in /  1012.3hPa Oeste 2.9mph /  4.6km/h 5.4mph /  8.7km/h 78% 0in /  0.0mm
08:34 63.9 °F /  17.7 °C 56.8 °F /  13.8 °C 29.9in /  1012.3hPa Oeste 2.4mph /  3.9km/h 6.2mph /  10km/h 78% 0in /  0.0mm
08:39 64 °F /  17.8 °C 57.2 °F /  14 °C 29.9in /  1012.3hPa OSO 2.9mph /  4.6km/h 6.9mph /  11.1km/h 78.5% 0in /  0.0mm
08:44 64.2 °F /  17.9 °C 57.4 °F /  14.1 °C 29.9in /  1012.3hPa OSO 3.6mph /  5.8km/h 7mph /  11.3km/h 78.8% 0in /  0.0mm
08:49 64.6 °F /  18.1 °C 57.6 °F /  14.2 °C 29.9in /  1012.3hPa SO 3.4mph /  5.5km/h 6.2mph /  10km/h 78% 0in /  0.0mm
08:54 64.9 °F /  18.3 °C 57.7 °F /  14.3 °C 29.9in /  1012.2hPa SO 3.1mph /  5km/h 6.2mph /  10km/h 77.6% 0in /  0.0mm
08:59 65.1 °F /  18.4 °C 57.7 °F /  14.3 °C 29.9in /  1012.2hPa OSO 3.5mph /  5.6km/h 6.9mph /  11.1km/h 76.9% 0in /  0.0mm
09:04 65.7 °F /  18.7 °C 57.9 °F /  14.4 °C 29.9in /  1012.2hPa SO 4mph /  6.5km/h 7mph /  11.3km/h 76.3% 0in /  0.0mm
09:09 65.8 °F /  18.8 °C 57.7 °F /  14.3 °C 29.9in /  1012.0hPa SO 3.7mph /  5.9km/h 6mph /  9.7km/h 75.3% 0in /  0.0mm
09:14 65.8 °F /  18.8 °C 57.6 °F /  14.2 °C 29.9in /  1012.0hPa Oeste 3.1mph /  5km/h 6.9mph /  11.1km/h 74.3% 0in /  0.0mm
09:19 66 °F /  18.9 °C 56.8 °F /  13.8 °C 29.9in /  1012.0hPa OSO 3.4mph /  5.5km/h 8.1mph /  13km/h 72% 0in /  0.0mm
09:24 66.4 °F /  19.1 °C 56.3 °F /  13.5 °C 29.9in /  1012.0hPa Oeste 4mph /  6.5km/h 8mph /  12.9km/h 69.9% 0in /  0.0mm
09:29 66.4 °F /  19.1 °C 55.9 °F /  13.3 °C 29.9in /  1012.0hPa OSO 4.1mph /  6.6km/h 7mph /  11.3km/h 69% 0in /  0.0mm
09:34 66.6 °F /  19.2 °C 55.9 °F /  13.3 °C 29.9in /  1012.1hPa OSO 4.3mph /  6.9km/h 6.9mph /  11.1km/h 68.9% 0in /  0.0mm
09:39 66.7 °F /  19.3 °C 55.8 °F /  13.2 °C 29.9in /  1012.1hPa OSO 4.3mph /  6.9km/h 8.5mph /  13.7km/h 67.7% 0in /  0.0mm
09:44 67.1 °F /  19.5 °C 55.8 °F /  13.2 °C 29.9in /  1012.1hPa Oeste 4.3mph /  6.9km/h 9mph /  14.5km/h 67.2% 0in /  0.0mm
09:49 67.3 °F /  19.6 °C 55.9 °F /  13.3 °C 29.9in /  1012.1hPa SO 4.3mph /  6.9km/h 7mph /  11.3km/h 67.1% 0in /  0.0mm
09:54 67.6 °F /  19.8 °C 55.9 °F /  13.3 °C 29.9in /  1012.0hPa SO 4.3mph /  6.9km/h 7mph /  11.3km/h 66.3% 0in /  0.0mm
09:59 68 °F /  20 °C 56.1 °F /  13.4 °C 29.9in /  1012.0hPa SSO 4mph /  6.5km/h 7mph /  11.3km/h 65.9% 0in /  0.0mm
10:04 68.4 °F /  20.2 °C 55.9 °F /  13.3 °C 29.9in /  1012.0hPa OSO 3.6mph /  5.8km/h 6.9mph /  11.1km/h 64.5% 0in /  0.0mm
10:09 68.7 °F /  20.4 °C 55.9 °F /  13.3 °C 29.9in /  1012.0hPa OSO 3.6mph /  5.8km/h 7mph /  11.3km/h 63.9% 0in /  0.0mm
10:14 68.9 °F /  20.5 °C 55.8 °F /  13.2 °C 29.9in /  1012.0hPa Oeste 3.6mph /  5.8km/h 6mph /  9.7km/h 63.1% 0in /  0.0mm
10:19 69.3 °F /  20.7 °C 55.9 °F /  13.3 °C 29.9in /  1012.0hPa ONO 3.4mph /  5.5km/h 6.9mph /  11.1km/h 62.7% 0in /  0.0mm
10:24 69.6 °F /  20.9 °C 55.8 °F /  13.2 °C 29.9in /  1012.0hPa OSO 3.1mph /  5km/h 7mph /  11.3km/h 61.5% 0in /  0.0mm
10:29 70.2 °F /  21.2 °C 55.9 °F /  13.3 °C 29.9in /  1012.0hPa OSO 3.3mph /  5.3km/h 7mph /  11.3km/h 60.5% 0in /  0.0mm
10:34 70.5 °F /  21.4 °C 55.9 °F /  13.3 °C 29.9in /  1012.0hPa SSO 3.6mph /  5.8km/h 6.9mph /  11.1km/h 59.8% 0in /  0.0mm
10:39 70.9 °F /  21.6 °C 55.6 °F /  13.1 °C 29.9in /  1011.8hPa SSO 3.7mph /  6km/h 9.7mph /  15.6km/h 58.6% 0in /  0.0mm
10:44 71.1 °F /  21.7 °C 55.8 °F /  13.2 °C 29.9in /  1011.8hPa SO 4mph /  6.5km/h 10mph /  16.1km/h 58.4% 0in /  0.0mm
10:49 71.2 °F /  21.8 °C 55.6 °F /  13.1 °C 29.9in /  1011.8hPa SO 3.9mph /  6.2km/h 7mph /  11.3km/h 57.7% 0in /  0.0mm
10:54 72 °F /  22.2 °C 55.8 °F /  13.2 °C 29.9in /  1011.6hPa ONO 3.6mph /  5.8km/h 6.9mph /  11.1km/h 56.9% 0in /  0.0mm
10:59 72.3 °F /  22.4 °C 55.6 °F /  13.1 °C 29.9in /  1011.6hPa SO 3.3mph /  5.3km/h 8.1mph /  13km/h 55.9% 0in /  0.0mm
11:04 72.7 °F /  22.6 °C 55.6 °F /  13.1 °C 29.9in /  1011.6hPa Oeste 2.9mph /  4.7km/h 8mph /  12.9km/h 55% 0in /  0.0mm
11:09 72.9 °F /  22.7 °C 55.8 °F /  13.2 °C 29.9in /  1011.5hPa ONO 3.2mph /  5.1km/h 7mph /  11.3km/h 55% 0in /  0.0mm
11:14 73.4 °F /  23 °C 55.6 °F /  13.1 °C 29.9in /  1011.5hPa OSO 3.6mph /  5.8km/h 8.1mph /  13km/h 54% 0in /  0.0mm
11:19 73.4 °F /  23 °C 55.8 °F /  13.2 °C 29.9in /  1011.6hPa Oeste 3.4mph /  5.4km/h 8mph /  12.9km/h 54% 0in /  0.0mm
11:24 73.8 °F /  23.2 °C 55 °F /  12.8 °C 29.9in /  1011.6hPa Oeste 2.9mph /  4.7km/h 8.1mph /  13km/h 51.9% 0in /  0.0mm
11:29 74.1 °F /  23.4 °C 55 °F /  12.8 °C 29.9in /  1011.6hPa OSO 3.3mph /  5.3km/h 9.2mph /  14.8km/h 51.3% 0in /  0.0mm
11:34 74.7 °F /  23.7 °C 55.4 °F /  13 °C 29.9in /  1011.6hPa SE 4mph /  6.5km/h 9mph /  14.5km/h 51.3% 0in /  0.0mm
11:39 75 °F /  23.9 °C 54.7 °F /  12.6 °C 29.9in /  1011.3hPa Oeste 3.9mph /  6.2km/h 8.5mph /  13.7km/h 49.1% 0in /  0.0mm
11:44 75 °F /  23.9 °C 55 °F /  12.8 °C 29.9in /  1011.3hPa ONO 3.6mph /  5.8km/h 9mph /  14.5km/h 49.8% 0in /  0.0mm
11:49 75.6 °F /  24.2 °C 55.2 °F /  12.9 °C 29.9in /  1011.3hPa ONO 3.2mph /  5.1km/h 6mph /  9.7km/h 49.1% 0in /  0.0mm
11:54 76.3 °F /  24.6 °C 54.9 °F /  12.7 °C 29.9in /  1011.2hPa SSO 2.4mph /  3.9km/h 8.5mph /  13.7km/h 47.6% 0in /  0.0mm
11:59 76.5 °F /  24.7 °C 54.7 °F /  12.6 °C 29.9in /  1011.2hPa SSE 3mph /  4.9km/h 9mph /  14.5km/h 47% 0in /  0.0mm
12:04 76.5 °F /  24.7 °C 54.7 °F /  12.6 °C 29.9in /  1011.2hPa Este 4mph /  6.5km/h 6mph /  9.7km/h 47.1% 0in /  0.0mm
12:09 76.5 °F /  24.7 °C 54.3 °F /  12.4 °C 29.9in /  1011.0hPa SE 3.9mph /  6.2km/h 8.5mph /  13.7km/h 46.4% 0in /  0.0mm
12:14 76.5 °F /  24.7 °C 54.1 °F /  12.3 °C 29.9in /  1011.0hPa SSE 3.6mph /  5.8km/h 9mph /  14.5km/h 46% 0in /  0.0mm
12:19 76.6 °F /  24.8 °C 54.1 °F /  12.3 °C 29.9in /  1011.0hPa Sur 3.6mph /  5.8km/h 7.4mph /  11.9km/h 46% 0in /  0.0mm
12:24 76.8 °F /  24.9 °C 54.1 °F /  12.3 °C 29.9in /  1010.8hPa SSO 3.6mph /  5.8km/h 11.5mph /  18.5km/h 45.3% 0in /  0.0mm
12:29 76.8 °F /  24.9 °C 54 °F /  12.2 °C 29.9in /  1010.8hPa Sur 4.2mph /  6.7km/h 12mph /  19.3km/h 45% 0in /  0.0mm
12:34 77.4 °F /  25.2 °C 53.6 °F /  12 °C 29.9in /  1010.8hPa SE 5.2mph /  8.4km/h 7mph /  11.3km/h 43.9% 0in /  0.0mm
12:39 77.7 °F /  25.4 °C 53.6 °F /  12 °C 29.9in /  1010.8hPa ESE 4.3mph /  7km/h 5.9mph /  9.5km/h 43.2% 0in /  0.0mm
12:44 78.3 °F /  25.7 °C 53.8 °F /  12.1 °C 29.9in /  1010.8hPa ENE 2.9mph /  4.7km/h 6mph /  9.7km/h 42.8% 0in /  0.0mm
12:49 78.8 °F /  26 °C 53.4 °F /  11.9 °C 29.9in /  1010.8hPa Sur 3mph /  4.8km/h 8.5mph /  13.7km/h 41.3% 0in /  0.0mm
12:54 78.8 °F /  26 °C 53.4 °F /  11.9 °C 29.8in /  1010.7hPa ONO 3.1mph /  5km/h 9mph /  14.5km/h 41.5% 0in /  0.0mm
12:59 78.8 °F /  26 °C 53.4 °F /  11.9 °C 29.8in /  1010.7hPa ONO 3.5mph /  5.7km/h 9mph /  14.5km/h 41.3% 0in /  0.0mm
13:04 79.2 °F /  26.2 °C 53.4 °F /  11.9 °C 29.8in /  1010.7hPa SO 4.3mph /  6.9km/h 6.9mph /  11.1km/h 41.3% 0in /  0.0mm
13:09 79.3 °F /  26.3 °C 53.4 °F /  11.9 °C 29.8in /  1010.5hPa Sur 3.9mph /  6.2km/h 8.1mph /  13km/h 40.9% 0in /  0.0mm
13:14 79.7 °F /  26.5 °C 53.1 °F /  11.7 °C 29.8in /  1010.5hPa Oeste 3.1mph /  5km/h 10.7mph /  17.2km/h 39.9% 0in /  0.0mm
13:19 79.9 °F /  26.6 °C 52.2 °F /  11.2 °C 29.8in /  1010.5hPa SSO 3.7mph /  5.9km/h 11mph /  17.7km/h 38.2% 0in /  0.0mm
13:24 80.1 °F /  26.7 °C 52.3 °F /  11.3 °C 29.8in /  1010.5hPa SSE 4.7mph /  7.6km/h 8.5mph /  13.7km/h 38.3% 0in /  0.0mm
13:29 80.2 °F /  26.8 °C 52.3 °F /  11.3 °C 29.8in /  1010.5hPa Sur 4.3mph /  6.9km/h 9mph /  14.5km/h 38.2% 0in /  0.0mm
13:34 80.6 °F /  27 °C 52.3 °F /  11.3 °C 29.8in /  1010.5hPa SSE 3.6mph /  5.8km/h 8.1mph /  13km/h 37.7% 0in /  0.0mm
13:39 80.6 °F /  27 °C 51.8 °F /  11 °C 29.8in /  1010.2hPa OSO 4mph /  6.5km/h 10.7mph /  17.2km/h 37% 0in /  0.0mm
13:44 80.4 °F /  26.9 °C 51.8 °F /  11 °C 29.8in /  1010.2hPa SO 4.7mph /  7.6km/h 11mph /  17.7km/h 37% 0in /  0.0mm
13:49 80.4 °F /  26.9 °C 52.3 °F /  11.3 °C 29.8in /  1010.2hPa Sur 4.3mph /  6.9km/h 7mph /  11.3km/h 37.6% 0in /  0.0mm
13:54 81.3 °F /  27.4 °C 52.5 °F /  11.4 °C 29.8in /  1009.9hPa NO 3.6mph /  5.8km/h 7.4mph /  11.9km/h 37.1% 0in /  0.0mm
13:59 81.9 °F /  27.7 °C 52.2 °F /  11.2 °C 29.8in /  1009.9hPa SSE 3.4mph /  5.5km/h 7.4mph /  11.9km/h 36% 0in /  0.0mm
14:04 81.9 °F /  27.7 °C 52 °F /  11.1 °C 29.8in /  1009.9hPa ESE 3.1mph /  5km/h 9.2mph /  14.8km/h 35.6% 0in /  0.0mm
14:09 82 °F /  27.8 °C 51.8 °F /  11 °C 29.8in /  1009.8hPa SSO 4.2mph /  6.7km/h 13mph /  20.9km/h 35.2% 0in /  0.0mm
14:14 81.9 °F /  27.7 °C 51.4 °F /  10.8 °C 29.8in /  1009.8hPa Sur 5.9mph /  9.5km/h 13mph /  20.9km/h 35% 0in /  0.0mm
14:19 82.2 °F /  27.9 °C 51.4 °F /  10.8 °C 29.8in /  1009.8hPa Sur 5.2mph /  8.4km/h 10.4mph /  16.7km/h 34.5% 0in /  0.0mm
14:24 82.6 °F /  28.1 °C 50.9 °F /  10.5 °C 29.8in /  1009.8hPa SE 4mph /  6.5km/h 10mph /  16.1km/h 33.3% 0in /  0.0mm
14:29 82.6 °F /  28.1 °C 50.7 °F /  10.4 °C 29.8in /  1009.8hPa SSE 4.1mph /  6.6km/h 10.4mph /  16.7km/h 33.2% 0in /  0.0mm
14:34 82.6 °F /  28.1 °C 50.9 °F /  10.5 °C 29.8in /  1009.8hPa SE 4.3mph /  6.9km/h 10.4mph /  16.7km/h 33.3% 0in /  0.0mm
14:39 82.9 °F /  28.3 °C 51.1 °F /  10.6 °C 29.8in /  1009.5hPa Sur 4.5mph /  7.2km/h 10mph /  16.1km/h 33.3% 0in /  0.0mm
14:44 83.5 °F /  28.6 °C 50.7 °F /  10.4 °C 29.8in /  1009.5hPa SSE 4.7mph /  7.6km/h 12.7mph /  20.4km/h 32.4% 0in /  0.0mm
14:49 83.5 °F /  28.6 °C 50.7 °F /  10.4 °C 29.8in /  1009.5hPa Sur 5.3mph /  8.5km/h 13mph /  20.9km/h 32.2% 0in /  0.0mm
14:54 83.5 °F /  28.6 °C 50.5 °F /  10.3 °C 29.8in /  1009.3hPa Oeste 6.2mph /  10km/h 13mph /  20.9km/h 32% 0in /  0.0mm
14:59 83.5 °F /  28.6 °C 50.5 °F /  10.3 °C 29.8in /  1009.3hPa ENE 5.3mph /  8.5km/h 8mph /  12.9km/h 32% 0in /  0.0mm
15:04 83.7 °F /  28.7 °C 50.2 °F /  10.1 °C 29.8in /  1009.3hPa SSE 4mph /  6.5km/h 8.7mph /  14km/h 31.4% 0in /  0.0mm
15:09 84 °F /  28.9 °C 50 °F /  10 °C 29.8in /  1009.1hPa SSE 4mph /  6.5km/h 9.2mph /  14.8km/h 30.8% 0in /  0.0mm
15:14 84.6 °F /  29.2 °C 50 °F /  10 °C 29.8in /  1009.1hPa NNE 4mph /  6.5km/h 9mph /  14.5km/h 30.3% 0in /  0.0mm
15:19 84.4 °F /  29.1 °C 49.6 °F /  9.8 °C 29.8in /  1009.1hPa ENE 4mph /  6.5km/h 8mph /  12.9km/h 30.1% 0in /  0.0mm
15:24 84.7 °F /  29.3 °C 49.8 °F /  9.9 °C 29.8in /  1008.9hPa ESE 4mph /  6.5km/h 5mph /  8km/h 30.1% 0in /  0.0mm
15:29 85.3 °F /  29.6 °C 50.4 °F /  10.2 °C 29.8in /  1008.9hPa ENE 3.3mph /  5.3km/h 5.2mph /  8.4km/h 30% 0in /  0.0mm
15:34 85.5 °F /  29.7 °C 50.2 °F /  10.1 °C 29.8in /  1008.9hPa Este 2mph /  3.2km/h 8.1mph /  13km/h 29.6% 0in /  0.0mm
15:39 85.5 °F /  29.7 °C 50 °F /  10 °C 29.8in /  1008.5hPa ESE 2.9mph /  4.7km/h 10.4mph /  16.7km/h 29.4% 0in /  0.0mm
15:44 85.5 °F /  29.7 °C 50.2 °F /  10.1 °C 29.8in /  1008.5hPa Este 4.3mph /  6.9km/h 10.4mph /  16.7km/h 29.6% 0in /  0.0mm
15:49 85.6 °F /  29.8 °C 49.6 °F /  9.8 °C 29.8in /  1008.5hPa ESE 4.5mph /  7.2km/h 11.8mph /  19km/h 29.1% 0in /  0.0mm
15:54 85.6 °F /  29.8 °C 49.6 °F /  9.8 °C 29.8in /  1008.3hPa ESE 4.7mph /  7.6km/h 12.3mph /  19.8km/h 28.9% 0in /  0.0mm
15:59 85.6 °F /  29.8 °C 53.4 °F /  11.9 °C 29.8in /  1008.3hPa ESE 6.1mph /  9.8km/h 21.9mph /  35.2km/h 33.1% 0in /  0.0mm
16:04 85.3 °F /  29.6 °C 55.8 °F /  13.2 °C 29.8in /  1008.3hPa ESE 8.1mph /  13km/h 22mph /  35.4km/h 36.8% 0in /  0.0mm
16:09 84.6 °F /  29.2 °C 55.8 °F /  13.2 °C 29.8in /  1008.0hPa SE 9.4mph /  15.2km/h 20mph /  32.2km/h 37.3% 0in /  0.0mm
16:14 84.6 °F /  29.2 °C 55.8 °F /  13.2 °C 29.8in /  1008.0hPa ESE 11.8mph /  19km/h 20mph /  32.2km/h 37.4% 0in /  0.0mm
16:19 84.4 °F /  29.1 °C 55.9 °F /  13.3 °C 29.8in /  1008.0hPa SE 11.8mph /  19km/h 20.7mph /  33.3km/h 37.8% 0in /  0.0mm
16:24 83.8 °F /  28.8 °C 56.3 °F /  13.5 °C 29.8in /  1007.9hPa SE 11.8mph /  19km/h 21mph /  33.8km/h 39.2% 0in /  0.0mm
16:29 84 °F /  28.9 °C 56.3 °F /  13.5 °C 29.8in /  1007.9hPa SE 11.8mph /  19km/h 18.5mph /  29.8km/h 38.9% 0in /  0.0mm
16:34 83.8 °F /  28.8 °C 56.7 °F /  13.7 °C 29.8in /  1007.9hPa SE 11.8mph /  19km/h 20.8mph /  33.5km/h 39.5% 0in /  0.0mm
16:39 83.7 °F /  28.7 °C 57 °F /  13.9 °C 29.8in /  1007.7hPa ESE 12mph /  19.3km/h 21mph /  33.8km/h 40.3% 0in /  0.0mm
16:44 83.8 °F /  28.8 °C 56.8 °F /  13.8 °C 29.8in /  1007.7hPa SE 12.3mph /  19.8km/h 18.4mph /  29.6km/h 40% 0in /  0.0mm
16:49 84 °F /  28.9 °C 57.4 °F /  14.1 °C 29.8in /  1007.7hPa SE 11.7mph /  18.9km/h 18mph /  29km/h 40.3% 0in /  0.0mm
16:54 84.6 °F /  29.2 °C 57.6 °F /  14.2 °C 29.8in /  1007.5hPa ESE 10.7mph /  17.2km/h 20.1mph /  32.3km/h 40.1% 0in /  0.0mm
16:59 84.6 °F /  29.2 °C 57.6 °F /  14.2 °C 29.8in /  1007.5hPa ESE 10.7mph /  17.2km/h 21.3mph /  34.3km/h 39.8% 0in /  0.0mm
17:04 84.2 °F /  29 °C 57.4 °F /  14.1 °C 29.8in /  1007.5hPa ESE 10.7mph /  17.2km/h 21mph /  33.8km/h 40% 0in /  0.0mm
17:09 84 °F /  28.9 °C 57 °F /  13.9 °C 29.8in /  1007.5hPa ESE 11.1mph /  17.9km/h 24.6mph /  39.6km/h 40% 0in /  0.0mm
17:14 83.8 °F /  28.8 °C 57 °F /  13.9 °C 29.8in /  1007.5hPa SE 11.8mph /  19km/h 25mph /  40.2km/h 40% 0in /  0.0mm
17:19 83.1 °F /  28.4 °C 56.5 °F /  13.6 °C 29.8in /  1007.5hPa SE 12mph /  19.3km/h 21.3mph /  34.3km/h 40.3% 0in /  0.0mm
17:24 82.4 °F /  28 °C 56.3 °F /  13.5 °C 29.8in /  1007.4hPa SE 12.3mph /  19.8km/h 21mph /  33.8km/h 41% 0in /  0.0mm
17:29 82.2 °F /  27.9 °C 56.1 °F /  13.4 °C 29.8in /  1007.4hPa ESE 12.3mph /  19.8km/h 22.3mph /  35.9km/h 41% 0in /  0.0mm
17:34 82 °F /  27.8 °C 56.1 °F /  13.4 °C 29.8in /  1007.5hPa ESE 12.3mph /  19.8km/h 22mph /  35.4km/h 41.1% 0in /  0.0mm
17:39 82 °F /  27.8 °C 56.5 °F /  13.6 °C 29.8in /  1007.5hPa SE 12.1mph /  19.5km/h 22mph /  35.4km/h 41.6% 0in /  0.0mm
17:44 82.2 °F /  27.9 °C 56.5 °F /  13.6 °C 29.8in /  1007.5hPa ESE 11.8mph /  19km/h 20.4mph /  32.8km/h 41.5% 0in /  0.0mm
17:49 82.6 °F /  28.1 °C 56.5 °F /  13.6 °C 29.8in /  1007.6hPa SE 11.6mph /  18.6km/h 20mph /  32.2km/h 41% 0in /  0.0mm
17:54 82.6 °F /  28.1 °C 56.5 °F /  13.6 °C 29.8in /  1007.6hPa ESE 11.2mph /  18km/h 20mph /  32.2km/h 41% 0in /  0.0mm
17:59 82.4 °F /  28 °C 56.3 °F /  13.5 °C 29.8in /  1007.6hPa ESE 11.3mph /  18.2km/h 23.5mph /  37.8km/h 41% 0in /  0.0mm
18:04 82.2 °F /  27.9 °C 56.1 °F /  13.4 °C 29.8in /  1007.7hPa SE 11.4mph /  18.4km/h 23mph /  37km/h 41.1% 0in /  0.0mm
18:09 82.2 °F /  27.9 °C 56.1 °F /  13.4 °C 29.8in /  1007.7hPa SE 11.3mph /  18.2km/h 19mph /  30.6km/h 41% 0in /  0.0mm
18:14 82.2 °F /  27.9 °C 56.3 °F /  13.5 °C 29.8in /  1007.7hPa SE 11.2mph /  18km/h 18.4mph /  29.6km/h 41% 0in /  0.0mm
18:19 82.2 °F /  27.9 °C 55.9 °F /  13.3 °C 29.8in /  1007.8hPa SE 10.6mph /  17.1km/h 18mph /  29km/h 40.4% 0in /  0.0mm
18:24 82 °F /  27.8 °C 55.4 °F /  13 °C 29.8in /  1007.8hPa SE 9.7mph /  15.6km/h 17mph /  27.4km/h 40% 0in /  0.0mm
18:29 82 °F /  27.8 °C 55.2 °F /  12.9 °C 29.8in /  1007.8hPa SE 9.9mph /  15.9km/h 16.1mph /  25.9km/h 40% 0in /  0.0mm
18:34 82 °F /  27.8 °C 55.4 °F /  13 °C 29.8in /  1007.8hPa SE 10.2mph /  16.4km/h 16mph /  25.7km/h 39.9% 0in /  0.0mm
18:39 82.6 °F /  28.1 °C 55.2 °F /  12.9 °C 29.8in /  1007.7hPa ESE 9.6mph /  15.5km/h 14mph /  22.5km/h 39.3% 0in /  0.0mm
18:44 83.1 °F /  28.4 °C 55.4 °F /  13 °C 29.8in /  1007.7hPa ESE 8.7mph /  14km/h 14mph /  22.5km/h 38.6% 0in /  0.0mm
18:49 83.5 °F /  28.6 °C 55.2 °F /  12.9 °C 29.8in /  1007.7hPa SE 7.8mph /  12.5km/h 12.7mph /  20.4km/h 37.9% 0in /  0.0mm
18:54 83.7 °F /  28.7 °C 55 °F /  12.8 °C 29.8in /  1007.6hPa ESE 6.2mph /  10km/h 13.5mph /  21.7km/h 37.6% 0in /  0.0mm
18:59 83.5 °F /  28.6 °C 55 °F /  12.8 °C 29.8in /  1007.6hPa ESE 7mph /  11.2km/h 14mph /  22.5km/h 37.8% 0in /  0.0mm
19:04 83.1 °F /  28.4 °C 54.9 °F /  12.7 °C 29.8in /  1007.6hPa ESE 8.1mph /  13km/h 15mph /  24.1km/h 37.9% 0in /  0.0mm
19:09 83.1 °F /  28.4 °C 54.3 °F /  12.4 °C 29.8in /  1007.6hPa ESE 8.3mph /  13.4km/h 15mph /  24.1km/h 37.2% 0in /  0.0mm
19:14 82.9 °F /  28.3 °C 54 °F /  12.2 °C 29.8in /  1007.6hPa ESE 8.7mph /  14km/h 15.9mph /  25.6km/h 36.9% 0in /  0.0mm
19:19 82.8 °F /  28.2 °C 53.4 °F /  11.9 °C 29.8in /  1007.8hPa ESE 8.4mph /  13.6km/h 16.1mph /  25.9km/h 36.7% 0in /  0.0mm
19:24 82.4 °F /  28 °C 52.9 °F /  11.6 °C 29.8in /  1007.8hPa ESE 8.1mph /  13km/h 14mph /  22.5km/h 36.3% 0in /  0.0mm
19:29 82 °F /  27.8 °C 53.1 °F /  11.7 °C 29.8in /  1007.8hPa ESE 7.8mph /  12.6km/h 13mph /  20.9km/h 37% 0in /  0.0mm
19:34 81.7 °F /  27.6 °C 53.1 °F /  11.7 °C 29.8in /  1007.9hPa ESE 7.4mph /  11.9km/h 10mph /  16.1km/h 37.1% 0in /  0.0mm
19:39 81.7 °F /  27.6 °C 53.1 °F /  11.7 °C 29.8in /  1007.9hPa ESE 6.8mph /  11km/h 9.7mph /  15.6km/h 37.3% 0in /  0.0mm
19:44 81.9 °F /  27.7 °C 53.6 °F /  12 °C 29.8in /  1007.9hPa ESE 5.9mph /  9.5km/h 10mph /  16.1km/h 38% 0in /  0.0mm
19:49 81.9 °F /  27.7 °C 53.2 °F /  11.8 °C 29.8in /  1007.9hPa ESE 5.7mph /  9.2km/h 9.2mph /  14.8km/h 37.2% 0in /  0.0mm
19:54 81.9 °F /  27.7 °C 53.4 °F /  11.9 °C 29.8in /  1007.8hPa ESE 5.4mph /  8.7km/h 9.2mph /  14.8km/h 37.5% 0in /  0.0mm
19:59 81.9 °F /  27.7 °C 53.2 °F /  11.8 °C 29.8in /  1007.8hPa SE 5.1mph /  8.2km/h 8mph /  12.9km/h 37.2% 0in /  0.0mm
20:04 82 °F /  27.8 °C 53.1 °F /  11.7 °C 29.8in /  1008.1hPa SSE 4.7mph /  7.6km/h 8.1mph /  13km/h 37% 0in /  0.0mm
20:09 82 °F /  27.8 °C 53.4 °F /  11.9 °C 29.8in /  1008.1hPa ESE 4.4mph /  7.1km/h 8mph /  12.9km/h 37.3% 0in /  0.0mm
20:14 82 °F /  27.8 °C 53.2 °F /  11.8 °C 29.8in /  1008.1hPa ESE 4mph /  6.5km/h 6.9mph /  11.1km/h 37% 0in /  0.0mm
20:19 81.9 °F /  27.7 °C 53.1 °F /  11.7 °C 29.8in /  1008.1hPa SE 3.9mph /  6.2km/h 7mph /  11.3km/h 37% 0in /  0.0mm
20:24 81.7 °F /  27.6 °C 52.9 °F /  11.6 °C 29.8in /  1008.1hPa ESE 3.6mph /  5.8km/h 6.9mph /  11.1km/h 37% 0in /  0.0mm
20:29 81.7 °F /  27.6 °C 53.4 °F /  11.9 °C 29.8in /  1008.1hPa ESE 3.7mph /  6km/h 7mph /  11.3km/h 37.9% 0in /  0.0mm
20:34 81.3 °F /  27.4 °C 53.1 °F /  11.7 °C 29.8in /  1008.2hPa ESE 4mph /  6.5km/h 6mph /  9.7km/h 37.8% 0in /  0.0mm
20:39 81.1 °F /  27.3 °C 53.1 °F /  11.7 °C 29.8in /  1008.2hPa ESE 4mph /  6.5km/h 6mph /  9.7km/h 38% 0in /  0.0mm
20:44 81.1 °F /  27.3 °C 53.1 °F /  11.7 °C 29.8in /  1008.2hPa Este 4mph /  6.5km/h 8.1mph /  13km/h 38% 0in /  0.0mm
20:49 81 °F /  27.2 °C 53.6 °F /  12 °C 29.8in /  1008.2hPa Este 4mph /  6.5km/h 8mph /  12.9km/h 39% 0in /  0.0mm
20:54 80.4 °F /  26.9 °C 53.2 °F /  11.8 °C 29.8in /  1008.1hPa ENE 4mph /  6.5km/h 8.1mph /  13km/h 39% 0in /  0.0mm
20:59 80.1 °F /  26.7 °C 52.9 °F /  11.6 °C 29.8in /  1008.1hPa Este 4.3mph /  6.9km/h 8.1mph /  13km/h 38.9% 0in /  0.0mm
21:04 79.9 °F /  26.6 °C 52.3 °F /  11.3 °C 29.8in /  1008.1hPa Este 4.7mph /  7.6km/h 8.1mph /  13km/h 38.5% 0in /  0.0mm
21:09 79.7 °F /  26.5 °C 51.8 °F /  11 °C 29.8in /  1008.1hPa ESE 4.9mph /  7.9km/h 8.5mph /  13.7km/h 38% 0in /  0.0mm
21:14 79.5 °F /  26.4 °C 51.6 °F /  10.9 °C 29.8in /  1008.1hPa ESE 5.2mph /  8.4km/h 9mph /  14.5km/h 38% 0in /  0.0mm
21:19 79.3 °F /  26.3 °C 51.4 °F /  10.8 °C 29.8in /  1008.3hPa SE 4.8mph /  7.8km/h 8mph /  12.9km/h 38% 0in /  0.0mm
21:24 79.2 °F /  26.2 °C 51.4 °F /  10.8 °C 29.8in /  1008.3hPa SE 4.3mph /  6.9km/h 7mph /  11.3km/h 38% 0in /  0.0mm
21:29 79 °F /  26.1 °C 51.3 °F /  10.7 °C 29.8in /  1008.3hPa ESE 4mph /  6.5km/h 7mph /  11.3km/h 38.1% 0in /  0.0mm
21:34 78.8 °F /  26 °C 51.8 °F /  11 °C 29.8in /  1008.3hPa NNE 3.6mph /  5.8km/h 5.9mph /  9.5km/h 39% 0in /  0.0mm
21:39 78.1 °F /  25.6 °C 54 °F /  12.2 °C 29.8in /  1008.3hPa NE 3.7mph /  6km/h 10.4mph /  16.7km/h 43.2% 0in /  0.0mm
21:44 77.2 °F /  25.1 °C 56.1 °F /  13.4 °C 29.8in /  1008.3hPa NNE 4mph /  6.5km/h 15.2mph /  24.5km/h 48.5% 0in /  0.0mm
21:49 75.4 °F /  24.1 °C 58.3 °F /  14.6 °C 29.8in /  1008.4hPa NE 5.3mph /  8.6km/h 15mph /  24.1km/h 55.2% 0in /  0.0mm
21:54 74.3 °F /  23.5 °C 58.3 °F /  14.6 °C 29.8in /  1008.4hPa NNE 7.6mph /  12.2km/h 15mph /  24.1km/h 57.3% 0in /  0.0mm
21:59 73.6 °F /  23.1 °C 59.5 °F /  15.3 °C 29.8in /  1008.4hPa NNE 8mph /  12.8km/h 15mph /  24.1km/h 61.4% 0in /  0.0mm
22:04 72.5 °F /  22.5 °C 60.3 °F /  15.7 °C 29.8in /  1008.6hPa NNE 8.5mph /  13.7km/h 16.1mph /  25.9km/h 65.4% 0in /  0.0mm
22:09 71.6 °F /  22 °C 60.4 °F /  15.8 °C 29.8in /  1008.6hPa NNE 8.9mph /  14.4km/h 16mph /  25.7km/h 67.7% 0in /  0.0mm
22:14 71.1 °F /  21.7 °C 60.6 °F /  15.9 °C 29.8in /  1008.6hPa NE 9.7mph /  15.6km/h 16.3mph /  26.2km/h 69.4% 0in /  0.0mm
22:19 70.7 °F /  21.5 °C 60.8 °F /  16 °C 29.8in /  1008.9hPa NNE 9.5mph /  15.3km/h 16mph /  25.7km/h 70.8% 0in /  0.0mm
22:24 70.3 °F /  21.3 °C 61 °F /  16.1 °C 29.8in /  1008.9hPa NNE 9.2mph /  14.8km/h 15mph /  24.1km/h 71.9% 0in /  0.0mm
22:29 70.2 °F /  21.2 °C 61 °F /  16.1 °C 29.8in /  1008.9hPa NNE 8.8mph /  14.1km/h 15mph /  24.1km/h 72.8% 0in /  0.0mm
22:34 70.2 °F /  21.2 °C 61.2 °F /  16.2 °C 29.8in /  1009.1hPa NNE 8.1mph /  13km/h 13mph /  20.9km/h 73.5% 0in /  0.0mm
22:39 69.8 °F /  21 °C 61.3 °F /  16.3 °C 29.8in /  1009.1hPa NNE 8.3mph /  13.3km/h 13.8mph /  22.2km/h 74.6% 0in /  0.0mm
22:44 69.6 °F /  20.9 °C 61.3 °F /  16.3 °C 29.8in /  1009.1hPa NNE 8.5mph /  13.7km/h 14mph /  22.5km/h 75% 0in /  0.0mm
22:49 69.6 °F /  20.9 °C 61.3 °F /  16.3 °C 29.8in /  1009.6hPa NNE 7.1mph /  11.5km/h 9mph /  14.5km/h 75% 0in /  0.0mm
22:54 69.8 °F /  21 °C 61.5 °F /  16.4 °C 29.8in /  1009.6hPa North 4.7mph /  7.6km/h 10.7mph /  17.2km/h 75% 0in /  0.0mm
22:59 69.6 °F /  20.9 °C 61.5 °F /  16.4 °C 29.8in /  1009.6hPa NNE 4.9mph /  7.9km/h 11mph /  17.7km/h 75.7% 0in /  0.0mm
23:04 69.4 °F /  20.8 °C 61.5 °F /  16.4 °C 29.8in /  1009.6hPa NE 5.2mph /  8.4km/h 11.5mph /  18.5km/h 76.2% 0in /  0.0mm
23:09 69.3 °F /  20.7 °C 61.7 °F /  16.5 °C 29.8in /  1009.6hPa NE 5.8mph /  9.4km/h 13mph /  20.9km/h 77% 0in /  0.0mm
23:14 69.1 °F /  20.6 °C 61.7 °F /  16.5 °C 29.8in /  1009.6hPa NE 6.9mph /  11.1km/h 13.8mph /  22.2km/h 77.6% 0in /  0.0mm
23:19 68.7 °F /  20.4 °C 61.7 °F /  16.5 °C 29.8in /  1009.6hPa NE 7.1mph /  11.5km/h 14mph /  22.5km/h 78% 0in /  0.0mm
23:24 68.7 °F /  20.4 °C 61.9 °F /  16.6 °C 29.8in /  1009.3hPa NE 7.6mph /  12.2km/h 15mph /  24.1km/h 79% 0in /  0.0mm
23:29 68.4 °F /  20.2 °C 61.9 °F /  16.6 °C 29.8in /  1009.3hPa NE 8mph /  12.9km/h 15mph /  24.1km/h 79.4% 0in /  0.0mm
23:34 68.4 °F /  20.2 °C 61.9 °F /  16.6 °C 29.8in /  1009.3hPa NE 8.7mph /  14km/h 15mph /  24.1km/h 80% 0in /  0.0mm
23:39 68.2 °F /  20.1 °C 61.9 °F /  16.6 °C 29.8in /  1009.1hPa NE 8.7mph /  14km/h 15mph /  24.1km/h 80% 0in /  0.0mm
23:44 68.2 °F /  20.1 °C 61.9 °F /  16.6 °C 29.8in /  1009.1hPa NE 8.7mph /  14km/h 13mph /  20.9km/h 80.2% 0in /  0.0mm
23:49 68.2 °F /  20.1 °C 62.1 °F /  16.7 °C 29.8in /  1009.4hPa NNE 7.9mph /  12.7km/h 12mph /  19.3km/h 81% 0in /  0.0mm
23:54 68 °F /  20 °C 61.9 °F /  16.6 °C 29.8in /  1009.4hPa NNE 6.4mph /  10.3km/h 12mph /  19.3km/h 81% 0in /  0.0mm
23:59 67.8 °F /  19.9 °C 61.9 °F /  16.6 °C 29.8in /  1009.4hPa NNE 6.3mph /  10.2km/h 12mph /  19.3km/h 81.4% 0in /  0.0mm
Murcia-Puente Tocinos, España
Compliments of Weather Underground - 3 mb

La estación de MeteoMurcia.com, publica sus datos en los siguientes proyectos:

Weather Underground PWS IMURCIAP2 Meteoclimatic www.awekas.at

W3Counter
Web Analytics